sensor_id;sensor_type;location;lat;lon;timestamp;P1;durP1;ratioP1;P2;durP2;ratioP2
42036;SDS011;30340;52.004;5.908;2022-12-29T00:00:03;4.65;;;3.55;;
42036;SDS011;30340;52.004;5.908;2022-12-29T00:02:30;4.47;;;3.50;;
42036;SDS011;30340;52.004;5.908;2022-12-29T00:04:55;4.03;;;3.30;;
42036;SDS011;30340;52.004;5.908;2022-12-29T00:07:21;3.55;;;3.22;;
42036;SDS011;30340;52.004;5.908;2022-12-29T00:09:46;3.70;;;2.95;;
42036;SDS011;30340;52.004;5.908;2022-12-29T00:12:12;3.60;;;3.30;;
42036;SDS011;30340;52.004;5.908;2022-12-29T00:14:37;5.28;;;3.80;;
42036;SDS011;30340;52.004;5.908;2022-12-29T00:17:21;4.78;;;3.75;;
42036;SDS011;30340;52.004;5.908;2022-12-29T00:19:48;5.30;;;3.05;;
42036;SDS011;30340;52.004;5.908;2022-12-29T00:22:32;4.90;;;3.90;;
42036;SDS011;30340;52.004;5.908;2022-12-29T00:25:16;4.28;;;3.45;;
42036;SDS011;30340;52.004;5.908;2022-12-29T00:28:00;4.43;;;3.13;;
42036;SDS011;30340;52.004;5.908;2022-12-29T00:30:44;4.38;;;3.15;;
42036;SDS011;30340;52.004;5.908;2022-12-29T00:33:29;4.28;;;3.33;;
42036;SDS011;30340;52.004;5.908;2022-12-29T00:36:18;4.80;;;3.63;;
42036;SDS011;30340;52.004;5.908;2022-12-29T00:39:03;4.53;;;3.63;;
42036;SDS011;30340;52.004;5.908;2022-12-29T00:41:52;4.10;;;2.95;;
42036;SDS011;30340;52.004;5.908;2022-12-29T00:44:43;4.23;;;3.30;;
42036;SDS011;30340;52.004;5.908;2022-12-29T00:47:09;3.55;;;3.10;;
42036;SDS011;30340;52.004;5.908;2022-12-29T00:49:35;3.17;;;2.80;;
42036;SDS011;30340;52.004;5.908;2022-12-29T00:52:01;3.47;;;2.90;;
42036;SDS011;30340;52.004;5.908;2022-12-29T00:54:35;3.50;;;3.13;;
42036;SDS011;30340;52.004;5.908;2022-12-29T00:57:02;3.25;;;2.95;;
42036;SDS011;30340;52.004;5.908;2022-12-29T00:59:29;3.58;;;2.70;;
42036;SDS011;30340;52.004;5.908;2022-12-29T01:01:55;3.47;;;3.10;;
42036;SDS011;30340;52.004;5.908;2022-12-29T01:04:21;3.53;;;2.80;;
42036;SDS011;30340;52.004;5.908;2022-12-29T01:06:49;3.78;;;2.85;;
42036;SDS011;30340;52.004;5.908;2022-12-29T01:09:15;4.60;;;2.67;;
42036;SDS011;30340;52.004;5.908;2022-12-29T01:12:00;3.45;;;2.40;;
42036;SDS011;30340;52.004;5.908;2022-12-29T01:14:25;3.10;;;2.33;;
42036;SDS011;30340;52.004;5.908;2022-12-29T01:16:51;3.70;;;2.15;;
42036;SDS011;30340;52.004;5.908;2022-12-29T01:19:17;4.13;;;2.10;;
42036;SDS011;30340;52.004;5.908;2022-12-29T01:21:44;4.75;;;2.20;;
42036;SDS011;30340;52.004;5.908;2022-12-29T01:24:10;2.42;;;1.90;;
42036;SDS011;30340;52.004;5.908;2022-12-29T01:26:36;2.65;;;1.80;;
42036;SDS011;30340;52.004;5.908;2022-12-29T01:29:02;2.00;;;1.80;;
42036;SDS011;30340;52.004;5.908;2022-12-29T01:31:27;2.60;;;1.52;;
42036;SDS011;30340;52.004;5.908;2022-12-29T01:33:53;2.65;;;1.83;;
42036;SDS011;30340;52.004;5.908;2022-12-29T01:36:18;3.17;;;1.63;;
42036;SDS011;30340;52.004;5.908;2022-12-29T01:38:44;1.90;;;1.63;;
42036;SDS011;30340;52.004;5.908;2022-12-29T01:41:12;1.80;;;1.40;;
42036;SDS011;30340;52.004;5.908;2022-12-29T01:46:11;2.55;;;1.60;;
42036;SDS011;30340;52.004;5.908;2022-12-29T01:48:43;2.85;;;1.60;;
42036;SDS011;30340;52.004;5.908;2022-12-29T01:51:12;2.28;;;1.90;;
42036;SDS011;30340;52.004;5.908;2022-12-29T01:53:37;2.35;;;1.73;;
42036;SDS011;30340;52.004;5.908;2022-12-29T01:56:04;2.28;;;1.60;;
42036;SDS011;30340;52.004;5.908;2022-12-29T01:58:37;2.78;;;1.60;;
42036;SDS011;30340;52.004;5.908;2022-12-29T02:01:06;2.63;;;1.90;;
42036;SDS011;30340;52.004;5.908;2022-12-29T02:03:32;2.70;;;2.10;;
42036;SDS011;30340;52.004;5.908;2022-12-29T02:06:04;2.00;;;1.70;;
42036;SDS011;30340;52.004;5.908;2022-12-29T02:08:37;2.47;;;2.20;;
42036;SDS011;30340;52.004;5.908;2022-12-29T02:11:04;2.10;;;1.80;;
42036;SDS011;30340;52.004;5.908;2022-12-29T02:13:31;2.45;;;2.08;;
42036;SDS011;30340;52.004;5.908;2022-12-29T02:16:09;3.17;;;2.20;;
42036;SDS011;30340;52.004;5.908;2022-12-29T02:27:01;1.80;;;1.70;;
42036;SDS011;30340;52.004;5.908;2022-12-29T02:32:29;1.98;;;1.60;;
42036;SDS011;30340;52.004;5.908;2022-12-29T02:37:43;2.05;;;1.60;;
42036;SDS011;30340;52.004;5.908;2022-12-29T02:53:46;1.80;;;1.70;;
42036;SDS011;30340;52.004;5.908;2022-12-29T02:56:30;1.77;;;1.67;;
42036;SDS011;30340;52.004;5.908;2022-12-29T02:58:56;1.75;;;1.60;;
42036;SDS011;30340;52.004;5.908;2022-12-29T03:06:33;3.38;;;1.60;;
42036;SDS011;30340;52.004;5.908;2022-12-29T03:11:58;2.97;;;1.45;;
42036;SDS011;30340;52.004;5.908;2022-12-29T03:14:38;1.55;;;1.10;;
42036;SDS011;30340;52.004;5.908;2022-12-29T03:18:19;2.72;;;1.30;;
42036;SDS011;30340;52.004;5.908;2022-12-29T03:20:50;1.27;;;1.02;;
42036;SDS011;30340;52.004;5.908;2022-12-29T03:23:22;3.45;;;1.55;;
42036;SDS011;30340;52.004;5.908;2022-12-29T03:25:57;1.55;;;1.08;;
42036;SDS011;30340;52.004;5.908;2022-12-29T03:28:32;2.50;;;1.17;;
42036;SDS011;30340;52.004;5.908;2022-12-29T03:31:03;3.15;;;1.30;;
42036;SDS011;30340;52.004;5.908;2022-12-29T03:33:31;3.30;;;1.20;;
42036;SDS011;30340;52.004;5.908;2022-12-29T03:35:59;3.20;;;1.30;;
42036;SDS011;30340;52.004;5.908;2022-12-29T03:41:09;4.53;;;1.70;;
42036;SDS011;30340;52.004;5.908;2022-12-29T03:43:38;4.18;;;1.20;;
42036;SDS011;30340;52.004;5.908;2022-12-29T03:46:03;2.38;;;1.38;;
42036;SDS011;30340;52.004;5.908;2022-12-29T03:48:29;2.35;;;1.20;;
42036;SDS011;30340;52.004;5.908;2022-12-29T03:50:54;2.33;;;1.20;;
42036;SDS011;30340;52.004;5.908;2022-12-29T03:53:20;2.40;;;1.30;;
42036;SDS011;30340;52.004;5.908;2022-12-29T03:55:46;2.83;;;1.30;;
42036;SDS011;30340;52.004;5.908;2022-12-29T03:58:11;2.80;;;1.15;;
42036;SDS011;30340;52.004;5.908;2022-12-29T04:00:37;2.10;;;1.02;;
42036;SDS011;30340;52.004;5.908;2022-12-29T04:03:03;4.07;;;1.60;;
42036;SDS011;30340;52.004;5.908;2022-12-29T04:05:28;2.28;;;1.20;;
42036;SDS011;30340;52.004;5.908;2022-12-29T04:07:54;2.15;;;1.15;;
42036;SDS011;30340;52.004;5.908;2022-12-29T04:10:20;3.22;;;1.20;;
42036;SDS011;30340;52.004;5.908;2022-12-29T04:12:46;2.30;;;1.10;;
42036;SDS011;30340;52.004;5.908;2022-12-29T04:15:11;2.95;;;1.40;;
42036;SDS011;30340;52.004;5.908;2022-12-29T04:17:37;2.17;;;1.25;;
42036;SDS011;30340;52.004;5.908;2022-12-29T04:20:03;1.70;;;1.20;;
42036;SDS011;30340;52.004;5.908;2022-12-29T04:22:47;2.95;;;1.30;;
42036;SDS011;30340;52.004;5.908;2022-12-29T04:25:13;3.17;;;1.40;;
42036;SDS011;30340;52.004;5.908;2022-12-29T04:27:39;3.50;;;1.27;;
42036;SDS011;30340;52.004;5.908;2022-12-29T04:30:04;2.58;;;1.27;;
42036;SDS011;30340;52.004;5.908;2022-12-29T04:32:30;4.35;;;1.45;;
42036;SDS011;30340;52.004;5.908;2022-12-29T04:34:56;4.43;;;1.30;;
42036;SDS011;30340;52.004;5.908;2022-12-29T04:37:22;3.50;;;1.15;;
42036;SDS011;30340;52.004;5.908;2022-12-29T04:39:47;3.72;;;1.17;;
42036;SDS011;30340;52.004;5.908;2022-12-29T04:42:13;3.53;;;1.35;;
42036;SDS011;30340;52.004;5.908;2022-12-29T04:44:38;2.45;;;1.30;;
42036;SDS011;30340;52.004;5.908;2022-12-29T04:47:04;3.05;;;1.20;;
42036;SDS011;30340;52.004;5.908;2022-12-29T04:49:29;4.00;;;1.70;;
42036;SDS011;30340;52.004;5.908;2022-12-29T04:51:55;3.53;;;1.40;;
42036;SDS011;30340;52.004;5.908;2022-12-29T04:54:20;3.85;;;1.63;;
42036;SDS011;30340;52.004;5.908;2022-12-29T04:56:46;2.85;;;1.30;;
42036;SDS011;30340;52.004;5.908;2022-12-29T04:59:11;2.60;;;1.20;;
42036;SDS011;30340;52.004;5.908;2022-12-29T05:01:37;4.82;;;1.30;;
42036;SDS011;30340;52.004;5.908;2022-12-29T05:04:03;3.47;;;1.13;;
42036;SDS011;30340;52.004;5.908;2022-12-29T05:06:28;2.20;;;1.25;;
42036;SDS011;30340;52.004;5.908;2022-12-29T05:08:54;4.22;;;1.52;;
42036;SDS011;30340;52.004;5.908;2022-12-29T05:11:19;4.25;;;1.40;;
42036;SDS011;30340;52.004;5.908;2022-12-29T05:13:45;4.82;;;1.40;;
42036;SDS011;30340;52.004;5.908;2022-12-29T05:16:11;4.03;;;1.10;;
42036;SDS011;30340;52.004;5.908;2022-12-29T05:18:37;3.38;;;1.27;;
42036;SDS011;30340;52.004;5.908;2022-12-29T05:21:02;3.05;;;1.20;;
42036;SDS011;30340;52.004;5.908;2022-12-29T05:23:28;3.83;;;1.30;;
42036;SDS011;30340;52.004;5.908;2022-12-29T05:25:54;5.35;;;1.35;;
42036;SDS011;30340;52.004;5.908;2022-12-29T05:28:19;4.35;;;1.45;;
42036;SDS011;30340;52.004;5.908;2022-12-29T05:30:47;4.13;;;1.40;;
42036;SDS011;30340;52.004;5.908;2022-12-29T05:33:14;4.43;;;1.48;;
42036;SDS011;30340;52.004;5.908;2022-12-29T05:35:39;4.32;;;1.25;;
42036;SDS011;30340;52.004;5.908;2022-12-29T05:38:05;3.67;;;1.40;;
42036;SDS011;30340;52.004;5.908;2022-12-29T05:40:30;4.75;;;1.70;;
42036;SDS011;30340;52.004;5.908;2022-12-29T05:42:56;3.75;;;1.30;;
42036;SDS011;30340;52.004;5.908;2022-12-29T05:45:21;4.32;;;1.60;;
42036;SDS011;30340;52.004;5.908;2022-12-29T05:47:47;2.35;;;1.40;;
42036;SDS011;30340;52.004;5.908;2022-12-29T05:50:13;4.07;;;1.52;;
42036;SDS011;30340;52.004;5.908;2022-12-29T05:52:38;3.25;;;1.50;;
42036;SDS011;30340;52.004;5.908;2022-12-29T05:55:04;2.70;;;1.30;;
42036;SDS011;30340;52.004;5.908;2022-12-29T05:57:30;3.10;;;1.45;;
42036;SDS011;30340;52.004;5.908;2022-12-29T05:59:56;3.58;;;1.50;;
42036;SDS011;30340;52.004;5.908;2022-12-29T06:02:21;3.95;;;1.55;;
42036;SDS011;30340;52.004;5.908;2022-12-29T06:04:47;2.00;;;1.30;;
42036;SDS011;30340;52.004;5.908;2022-12-29T06:07:12;4.10;;;1.60;;
42036;SDS011;30340;52.004;5.908;2022-12-29T06:09:38;3.97;;;1.50;;
42036;SDS011;30340;52.004;5.908;2022-12-29T06:12:03;3.10;;;1.50;;
42036;SDS011;30340;52.004;5.908;2022-12-29T06:14:29;5.70;;;1.45;;
42036;SDS011;30340;52.004;5.908;2022-12-29T06:16:55;3.63;;;1.50;;
42036;SDS011;30340;52.004;5.908;2022-12-29T06:19:20;4.70;;;1.63;;
42036;SDS011;30340;52.004;5.908;2022-12-29T06:21:46;5.45;;;1.70;;
42036;SDS011;30340;52.004;5.908;2022-12-29T06:24:11;8.45;;;2.10;;
42036;SDS011;30340;52.004;5.908;2022-12-29T06:26:37;5.63;;;1.58;;
42036;SDS011;30340;52.004;5.908;2022-12-29T06:29:03;5.80;;;1.83;;
42036;SDS011;30340;52.004;5.908;2022-12-29T06:31:28;5.75;;;1.52;;
42036;SDS011;30340;52.004;5.908;2022-12-29T06:33:54;5.05;;;1.30;;
42036;SDS011;30340;52.004;5.908;2022-12-29T06:36:19;9.23;;;1.88;;
42036;SDS011;30340;52.004;5.908;2022-12-29T06:38:45;6.43;;;1.75;;
42036;SDS011;30340;52.004;5.908;2022-12-29T06:41:10;4.78;;;1.40;;
42036;SDS011;30340;52.004;5.908;2022-12-29T06:43:36;6.03;;;1.70;;
42036;SDS011;30340;52.004;5.908;2022-12-29T06:46:03;6.40;;;1.75;;
42036;SDS011;30340;52.004;5.908;2022-12-29T06:48:29;4.63;;;1.70;;
42036;SDS011;30340;52.004;5.908;2022-12-29T06:50:55;5.32;;;1.63;;
42036;SDS011;30340;52.004;5.908;2022-12-29T06:53:20;3.58;;;1.27;;
42036;SDS011;30340;52.004;5.908;2022-12-29T06:55:46;5.38;;;1.60;;
42036;SDS011;30340;52.004;5.908;2022-12-29T06:58:11;7.18;;;1.58;;
42036;SDS011;30340;52.004;5.908;2022-12-29T07:00:37;6.38;;;1.65;;
42036;SDS011;30340;52.004;5.908;2022-12-29T07:03:03;5.57;;;1.63;;
42036;SDS011;30340;52.004;5.908;2022-12-29T07:05:28;5.70;;;1.80;;
42036;SDS011;30340;52.004;5.908;2022-12-29T07:07:56;4.30;;;1.60;;
42036;SDS011;30340;52.004;5.908;2022-12-29T07:10:22;6.22;;;1.33;;
42036;SDS011;30340;52.004;5.908;2022-12-29T07:12:48;4.57;;;1.58;;
42036;SDS011;30340;52.004;5.908;2022-12-29T07:15:13;5.13;;;1.40;;
42036;SDS011;30340;52.004;5.908;2022-12-29T07:17:39;4.53;;;1.50;;
42036;SDS011;30340;52.004;5.908;2022-12-29T07:20:05;6.57;;;1.35;;
42036;SDS011;30340;52.004;5.908;2022-12-29T07:22:31;5.47;;;1.48;;
42036;SDS011;30340;52.004;5.908;2022-12-29T07:24:57;4.90;;;1.30;;
42036;SDS011;30340;52.004;5.908;2022-12-29T07:27:22;5.35;;;1.67;;
42036;SDS011;30340;52.004;5.908;2022-12-29T07:29:48;6.75;;;1.60;;
42036;SDS011;30340;52.004;5.908;2022-12-29T07:32:13;4.00;;;1.35;;
42036;SDS011;30340;52.004;5.908;2022-12-29T07:34:39;4.20;;;1.40;;
42036;SDS011;30340;52.004;5.908;2022-12-29T07:37:05;4.15;;;1.48;;
42036;SDS011;30340;52.004;5.908;2022-12-29T07:39:31;3.72;;;1.40;;
42036;SDS011;30340;52.004;5.908;2022-12-29T07:41:56;5.40;;;1.70;;
42036;SDS011;30340;52.004;5.908;2022-12-29T07:44:22;4.00;;;1.40;;
42036;SDS011;30340;52.004;5.908;2022-12-29T07:46:47;5.75;;;1.67;;
42036;SDS011;30340;52.004;5.908;2022-12-29T07:49:13;4.30;;;1.73;;
42036;SDS011;30340;52.004;5.908;2022-12-29T07:51:38;4.38;;;1.55;;
42036;SDS011;30340;52.004;5.908;2022-12-29T07:54:04;5.70;;;1.70;;
42036;SDS011;30340;52.004;5.908;2022-12-29T07:56:29;5.95;;;1.52;;
42036;SDS011;30340;52.004;5.908;2022-12-29T07:58:55;5.65;;;1.50;;
42036;SDS011;30340;52.004;5.908;2022-12-29T08:01:21;6.30;;;1.70;;
42036;SDS011;30340;52.004;5.908;2022-12-29T08:03:48;6.15;;;1.63;;
42036;SDS011;30340;52.004;5.908;2022-12-29T08:06:14;7.18;;;2.08;;
42036;SDS011;30340;52.004;5.908;2022-12-29T08:08:40;6.10;;;1.52;;
42036;SDS011;30340;52.004;5.908;2022-12-29T08:11:06;5.43;;;1.35;;
42036;SDS011;30340;52.004;5.908;2022-12-29T08:13:31;5.07;;;2.05;;
42036;SDS011;30340;52.004;5.908;2022-12-29T08:15:57;7.30;;;2.45;;
42036;SDS011;30340;52.004;5.908;2022-12-29T08:18:23;7.00;;;1.70;;
42036;SDS011;30340;52.004;5.908;2022-12-29T08:20:49;7.07;;;2.00;;
42036;SDS011;30340;52.004;5.908;2022-12-29T08:23:15;4.85;;;1.70;;
42036;SDS011;30340;52.004;5.908;2022-12-29T08:25:40;6.68;;;1.80;;
42036;SDS011;30340;52.004;5.908;2022-12-29T08:28:06;5.53;;;2.17;;
42036;SDS011;30340;52.004;5.908;2022-12-29T08:30:32;6.55;;;2.00;;
42036;SDS011;30340;52.004;5.908;2022-12-29T08:32:57;5.47;;;1.77;;
42036;SDS011;30340;52.004;5.908;2022-12-29T08:35:23;5.72;;;1.60;;
42036;SDS011;30340;52.004;5.908;2022-12-29T08:37:49;9.18;;;2.33;;
42036;SDS011;30340;52.004;5.908;2022-12-29T08:40:14;6.43;;;2.03;;
42036;SDS011;30340;52.004;5.908;2022-12-29T08:42:40;7.90;;;2.17;;
42036;SDS011;30340;52.004;5.908;2022-12-29T08:45:06;6.57;;;2.05;;
42036;SDS011;30340;52.004;5.908;2022-12-29T08:47:33;6.65;;;1.70;;
42036;SDS011;30340;52.004;5.908;2022-12-29T08:49:59;5.43;;;1.70;;
42036;SDS011;30340;52.004;5.908;2022-12-29T08:52:24;5.45;;;1.40;;
42036;SDS011;30340;52.004;5.908;2022-12-29T08:54:50;6.97;;;1.92;;
42036;SDS011;30340;52.004;5.908;2022-12-29T08:57:15;6.13;;;1.88;;
42036;SDS011;30340;52.004;5.908;2022-12-29T08:59:41;4.97;;;1.70;;
42036;SDS011;30340;52.004;5.908;2022-12-29T09:02:10;5.97;;;1.80;;
42036;SDS011;30340;52.004;5.908;2022-12-29T09:04:36;6.25;;;1.90;;
42036;SDS011;30340;52.004;5.908;2022-12-29T09:07:02;5.53;;;1.63;;
42036;SDS011;30340;52.004;5.908;2022-12-29T09:09:28;6.85;;;1.90;;
42036;SDS011;30340;52.004;5.908;2022-12-29T09:11:54;6.55;;;1.95;;
42036;SDS011;30340;52.004;5.908;2022-12-29T09:14:19;9.07;;;2.20;;
42036;SDS011;30340;52.004;5.908;2022-12-29T09:16:46;6.18;;;2.10;;
42036;SDS011;30340;52.004;5.908;2022-12-29T09:19:30;5.57;;;1.70;;
42036;SDS011;30340;52.004;5.908;2022-12-29T09:21:56;5.70;;;1.70;;
42036;SDS011;30340;52.004;5.908;2022-12-29T09:24:21;9.70;;;1.90;;
42036;SDS011;30340;52.004;5.908;2022-12-29T09:26:47;9.07;;;2.28;;
42036;SDS011;30340;52.004;5.908;2022-12-29T09:29:12;8.35;;;2.20;;
42036;SDS011;30340;52.004;5.908;2022-12-29T09:31:38;6.72;;;1.80;;
42036;SDS011;30340;52.004;5.908;2022-12-29T09:34:04;9.02;;;1.90;;
42036;SDS011;30340;52.004;5.908;2022-12-29T09:36:29;7.25;;;1.80;;
42036;SDS011;30340;52.004;5.908;2022-12-29T09:38:55;6.63;;;1.88;;
42036;SDS011;30340;52.004;5.908;2022-12-29T09:41:22;5.75;;;1.80;;
42036;SDS011;30340;52.004;5.908;2022-12-29T09:43:58;8.75;;;2.35;;
42036;SDS011;30340;52.004;5.908;2022-12-29T09:46:44;6.90;;;2.10;;
42036;SDS011;30340;52.004;5.908;2022-12-29T09:49:23;6.65;;;2.05;;
42036;SDS011;30340;52.004;5.908;2022-12-29T09:52:03;6.43;;;1.85;;
42036;SDS011;30340;52.004;5.908;2022-12-29T09:54:45;6.25;;;1.95;;
42036;SDS011;30340;52.004;5.908;2022-12-29T10:00:44;8.73;;;2.28;;
42036;SDS011;30340;52.004;5.908;2022-12-29T10:03:19;5.78;;;2.00;;
42036;SDS011;30340;52.004;5.908;2022-12-29T10:10:53;5.88;;;2.15;;
42036;SDS011;30340;52.004;5.908;2022-12-29T10:18:43;5.75;;;1.70;;
42036;SDS011;30340;52.004;5.908;2022-12-29T10:24:02;6.88;;;2.05;;
42036;SDS011;30340;52.004;5.908;2022-12-29T10:26:33;8.90;;;2.38;;
42036;SDS011;30340;52.004;5.908;2022-12-29T10:29:04;8.00;;;2.10;;
42036;SDS011;30340;52.004;5.908;2022-12-29T10:31:38;6.45;;;1.70;;
42036;SDS011;30340;52.004;5.908;2022-12-29T10:34:34;7.18;;;1.80;;
42036;SDS011;30340;52.004;5.908;2022-12-29T10:37:04;7.57;;;2.00;;
42036;SDS011;30340;52.004;5.908;2022-12-29T10:39:37;6.85;;;1.95;;
42036;SDS011;30340;52.004;5.908;2022-12-29T10:42:13;4.97;;;1.70;;
42036;SDS011;30340;52.004;5.908;2022-12-29T10:44:46;6.57;;;1.80;;
42036;SDS011;30340;52.004;5.908;2022-12-29T10:47:15;5.40;;;1.70;;
42036;SDS011;30340;52.004;5.908;2022-12-29T10:49:44;7.63;;;2.00;;
42036;SDS011;30340;52.004;5.908;2022-12-29T10:52:12;8.15;;;2.67;;
42036;SDS011;30340;52.004;5.908;2022-12-29T10:57:16;3.90;;;1.90;;
42036;SDS011;30340;52.004;5.908;2022-12-29T10:59:50;9.13;;;2.40;;
42036;SDS011;30340;52.004;5.908;2022-12-29T11:05:05;5.80;;;1.95;;
42036;SDS011;30340;52.004;5.908;2022-12-29T11:07:47;5.53;;;1.80;;
42036;SDS011;30340;52.004;5.908;2022-12-29T11:13:04;5.55;;;2.10;;
42036;SDS011;30340;52.004;5.908;2022-12-29T11:15:40;7.22;;;2.47;;
42036;SDS011;30340;52.004;5.908;2022-12-29T11:20:51;10.52;;;2.50;;
42036;SDS011;30340;52.004;5.908;2022-12-29T11:28:34;9.13;;;3.03;;
42036;SDS011;30340;52.004;5.908;2022-12-29T11:31:01;12.73;;;3.17;;
42036;SDS011;30340;52.004;5.908;2022-12-29T11:33:29;11.73;;;3.20;;
42036;SDS011;30340;52.004;5.908;2022-12-29T11:35:58;6.57;;;2.42;;
42036;SDS011;30340;52.004;5.908;2022-12-29T11:38:33;8.18;;;3.22;;
42036;SDS011;30340;52.004;5.908;2022-12-29T11:41:01;5.75;;;2.70;;
42036;SDS011;30340;52.004;5.908;2022-12-29T11:43:36;11.45;;;3.35;;
42036;SDS011;30340;52.004;5.908;2022-12-29T11:46:04;9.48;;;3.03;;
42036;SDS011;30340;52.004;5.908;2022-12-29T11:48:32;10.43;;;2.90;;
42036;SDS011;30340;52.004;5.908;2022-12-29T11:51:04;11.65;;;3.42;;
42036;SDS011;30340;52.004;5.908;2022-12-29T11:56:02;9.38;;;3.30;;
42036;SDS011;30340;52.004;5.908;2022-12-29T11:58:38;9.23;;;3.40;;
42036;SDS011;30340;52.004;5.908;2022-12-29T12:01:13;9.20;;;3.30;;
42036;SDS011;30340;52.004;5.908;2022-12-29T12:03:56;11.95;;;3.90;;
42036;SDS011;30340;52.004;5.908;2022-12-29T12:06:27;14.40;;;3.60;;
42036;SDS011;30340;52.004;5.908;2022-12-29T12:08:57;10.73;;;3.42;;
42036;SDS011;30340;52.004;5.908;2022-12-29T12:11:34;8.63;;;3.40;;
42036;SDS011;30340;52.004;5.908;2022-12-29T12:14:11;11.30;;;3.50;;
42036;SDS011;30340;52.004;5.908;2022-12-29T12:16:43;8.13;;;3.25;;
42036;SDS011;30340;52.004;5.908;2022-12-29T12:19:32;9.75;;;3.75;;
42036;SDS011;30340;52.004;5.908;2022-12-29T12:24:52;13.75;;;3.63;;
42036;SDS011;30340;52.004;5.908;2022-12-29T12:27:26;16.00;;;4.28;;
42036;SDS011;30340;52.004;5.908;2022-12-29T12:29:58;12.68;;;3.80;;
42036;SDS011;30340;52.004;5.908;2022-12-29T12:35:53;14.98;;;4.40;;
42036;SDS011;30340;52.004;5.908;2022-12-29T13:00:22;12.35;;;3.53;;
42036;SDS011;30340;52.004;5.908;2022-12-29T13:02:58;7.72;;;3.10;;
42036;SDS011;30340;52.004;5.908;2022-12-29T13:11:07;7.97;;;3.08;;
42036;SDS011;30340;52.004;5.908;2022-12-29T13:16:50;9.43;;;3.40;;
42036;SDS011;30340;52.004;5.908;2022-12-29T13:19:48;11.23;;;3.42;;
42036;SDS011;30340;52.004;5.908;2022-12-29T13:36:29;9.15;;;3.65;;
42036;SDS011;30340;52.004;5.908;2022-12-29T13:41:47;12.43;;;3.30;;
42036;SDS011;30340;52.004;5.908;2022-12-29T13:44:17;10.40;;;3.30;;
42036;SDS011;30340;52.004;5.908;2022-12-29T13:46:47;9.07;;;3.13;;
42036;SDS011;30340;52.004;5.908;2022-12-29T13:49:17;10.48;;;3.20;;
42036;SDS011;30340;52.004;5.908;2022-12-29T13:51:48;8.70;;;3.33;;
42036;SDS011;30340;52.004;5.908;2022-12-29T13:54:40;7.85;;;3.03;;
42036;SDS011;30340;52.004;5.908;2022-12-29T13:57:28;9.20;;;2.72;;
42036;SDS011;30340;52.004;5.908;2022-12-29T14:00:15;7.22;;;2.88;;
42036;SDS011;30340;52.004;5.908;2022-12-29T14:07:48;8.30;;;2.75;;
42036;SDS011;30340;52.004;5.908;2022-12-29T14:13:14;11.35;;;3.15;;
42036;SDS011;30340;52.004;5.908;2022-12-29T14:15:43;9.27;;;3.00;;
42036;SDS011;30340;52.004;5.908;2022-12-29T14:23:41;6.80;;;2.60;;
42036;SDS011;30340;52.004;5.908;2022-12-29T14:26:33;5.88;;;2.13;;
42036;SDS011;30340;52.004;5.908;2022-12-29T14:38:07;2.47;;;1.48;;
42036;SDS011;30340;52.004;5.908;2022-12-29T14:40:43;2.83;;;1.52;;
42036;SDS011;30340;52.004;5.908;2022-12-29T14:43:13;4.38;;;1.88;;
42036;SDS011;30340;52.004;5.908;2022-12-29T14:45:48;5.05;;;1.92;;
42036;SDS011;30340;52.004;5.908;2022-12-29T14:50:58;5.53;;;2.25;;
42036;SDS011;30340;52.004;5.908;2022-12-29T14:54:06;5.75;;;2.20;;
42036;SDS011;30340;52.004;5.908;2022-12-29T14:56:15;6.47;;;2.17;;
42036;SDS011;30340;52.004;5.908;2022-12-29T14:58:44;2.97;;;1.67;;
42036;SDS011;30340;52.004;5.908;2022-12-29T15:01:16;6.70;;;2.15;;
42036;SDS011;30340;52.004;5.908;2022-12-29T15:03:45;4.53;;;1.90;;
42036;SDS011;30340;52.004;5.908;2022-12-29T15:06:15;5.68;;;2.38;;
42036;SDS011;30340;52.004;5.908;2022-12-29T15:11:19;6.85;;;2.45;;
42036;SDS011;30340;52.004;5.908;2022-12-29T15:13:47;6.43;;;2.53;;
42036;SDS011;30340;52.004;5.908;2022-12-29T15:18:49;4.63;;;2.28;;
42036;SDS011;30340;52.004;5.908;2022-12-29T15:21:15;8.85;;;2.65;;
42036;SDS011;30340;52.004;5.908;2022-12-29T15:23:44;7.32;;;2.63;;
42036;SDS011;30340;52.004;5.908;2022-12-29T15:26:10;4.32;;;2.05;;
42036;SDS011;30340;52.004;5.908;2022-12-29T15:28:38;6.20;;;2.53;;
42036;SDS011;30340;52.004;5.908;2022-12-29T15:31:12;6.35;;;2.13;;
42036;SDS011;30340;52.004;5.908;2022-12-29T15:33:40;8.05;;;2.47;;
42036;SDS011;30340;52.004;5.908;2022-12-29T15:36:11;6.90;;;2.70;;
42036;SDS011;30340;52.004;5.908;2022-12-29T15:38:38;7.63;;;2.33;;
42036;SDS011;30340;52.004;5.908;2022-12-29T15:41:05;7.22;;;2.50;;
42036;SDS011;30340;52.004;5.908;2022-12-29T15:43:43;7.00;;;2.38;;
42036;SDS011;30340;52.004;5.908;2022-12-29T15:46:29;23.65;;;14.40;;
42036;SDS011;30340;52.004;5.908;2022-12-29T15:48:55;27.45;;;19.88;;
42036;SDS011;30340;52.004;5.908;2022-12-29T15:51:28;17.95;;;11.77;;
42036;SDS011;30340;52.004;5.908;2022-12-29T15:53:58;12.73;;;5.95;;
42036;SDS011;30340;52.004;5.908;2022-12-29T15:56:24;13.10;;;6.55;;
42036;SDS011;30340;52.004;5.908;2022-12-29T15:58:53;8.52;;;4.63;;
42036;SDS011;30340;52.004;5.908;2022-12-29T16:01:29;9.35;;;4.07;;
42036;SDS011;30340;52.004;5.908;2022-12-29T16:03:59;7.20;;;3.28;;
42036;SDS011;30340;52.004;5.908;2022-12-29T16:06:29;7.95;;;2.90;;
42036;SDS011;30340;52.004;5.908;2022-12-29T16:09:00;10.10;;;3.53;;
42036;SDS011;30340;52.004;5.908;2022-12-29T16:14:41;9.13;;;3.42;;
42036;SDS011;30340;52.004;5.908;2022-12-29T16:17:13;9.85;;;4.18;;
42036;SDS011;30340;52.004;5.908;2022-12-29T16:19:47;11.63;;;7.65;;
42036;SDS011;30340;52.004;5.908;2022-12-29T16:25:00;10.30;;;4.85;;
42036;SDS011;30340;52.004;5.908;2022-12-29T16:27:32;7.68;;;3.60;;
42036;SDS011;30340;52.004;5.908;2022-12-29T16:30:04;6.88;;;4.00;;
42036;SDS011;30340;52.004;5.908;2022-12-29T16:32:51;10.80;;;3.47;;
42036;SDS011;30340;52.004;5.908;2022-12-29T16:35:23;7.57;;;3.42;;
42036;SDS011;30340;52.004;5.908;2022-12-29T16:41:01;5.25;;;3.00;;
42036;SDS011;30340;52.004;5.908;2022-12-29T16:43:32;6.22;;;3.05;;
42036;SDS011;30340;52.004;5.908;2022-12-29T16:48:28;6.80;;;2.30;;
42036;SDS011;30340;52.004;5.908;2022-12-29T16:51:05;8.80;;;3.10;;
42036;SDS011;30340;52.004;5.908;2022-12-29T16:53:39;7.18;;;2.67;;
42036;SDS011;30340;52.004;5.908;2022-12-29T16:56:15;8.93;;;2.75;;
42036;SDS011;30340;52.004;5.908;2022-12-29T16:59:43;7.05;;;2.65;;
42036;SDS011;30340;52.004;5.908;2022-12-29T17:01:50;5.82;;;2.08;;
42036;SDS011;30340;52.004;5.908;2022-12-29T17:04:16;5.70;;;2.00;;
42036;SDS011;30340;52.004;5.908;2022-12-29T17:06:41;6.68;;;2.20;;
42036;SDS011;30340;52.004;5.908;2022-12-29T17:09:20;5.80;;;1.80;;
42036;SDS011;30340;52.004;5.908;2022-12-29T17:11:51;5.85;;;1.70;;
42036;SDS011;30340;52.004;5.908;2022-12-29T17:17:48;4.20;;;2.05;;
42036;SDS011;30340;52.004;5.908;2022-12-29T17:19:59;8.68;;;2.30;;
42036;SDS011;30340;52.004;5.908;2022-12-29T17:22:28;6.63;;;2.17;;
42036;SDS011;30340;52.004;5.908;2022-12-29T17:24:54;5.82;;;2.45;;
42036;SDS011;30340;52.004;5.908;2022-12-29T17:29:59;6.97;;;3.45;;
42036;SDS011;30340;52.004;5.908;2022-12-29T17:32:28;5.32;;;2.35;;
42036;SDS011;30340;52.004;5.908;2022-12-29T17:34:54;3.58;;;1.88;;
42036;SDS011;30340;52.004;5.908;2022-12-29T17:39:49;5.22;;;1.88;;
42036;SDS011;30340;52.004;5.908;2022-12-29T17:42:14;6.00;;;1.90;;
42036;SDS011;30340;52.004;5.908;2022-12-29T17:44:42;8.30;;;2.85;;
42036;SDS011;30340;52.004;5.908;2022-12-29T17:47:09;8.80;;;2.75;;
42036;SDS011;30340;52.004;5.908;2022-12-29T17:49:35;6.35;;;2.30;;
42036;SDS011;30340;52.004;5.908;2022-12-29T17:52:01;6.68;;;2.20;;
42036;SDS011;30340;52.004;5.908;2022-12-29T17:54:28;5.85;;;2.38;;
42036;SDS011;30340;52.004;5.908;2022-12-29T17:56:54;4.30;;;1.90;;
42036;SDS011;30340;52.004;5.908;2022-12-29T17:59:20;5.43;;;2.20;;